Lebanon, VA (24266)

3:00 AM EDT on April 28, 2017 (GMT -0400)
Hansonville | | Change Station
Active Advisory: Special Statement

Elev 2200 ft 36.81 °N, 82.13 °W | Updated 19 seconds ago

Overcast
Overcast
53.8 °F
Feels Like 53.8 °F
N
0.0
Wind Variable Wind from WSW

Today
High -- | Low -- °F
--% Chance of Precip.
Yesterday
High -- | Low -- °F
Precip. -- in
Pressure 29.97 in
Visibility 0.2 miles
Clouds Overcast 100 ft
Dew Point 53 °F
Humidity 98%
Rainfall 0.00 in
Snow Depth Not available.
6:37 AM 8:14 PM
Waxing Crescent, 5% visible
METAR KVJI 280655Z AUTO 10003KT 1/4SM FG OVC001 15/15 A2997 RMK AO2 T01520152
Pressure 29.97 in
Visibility 0.2 miles
Clouds Overcast 100 ft
Dew Point 53 °F
Humidity 98%
Rainfall 0.00 in
Snow Depth Not available.
6:37 AM 8:14 PM
Waxing Crescent, 5% visible
METAR KVJI 280655Z AUTO 10003KT 1/4SM FG OVC001 15/15 A2997 RMK AO2 T01520152

Get Your Daily Forecast Email!

Thanks for signing up!

Be on the lookout for a verification email in your inbox.

You'll start receiving severe weather alerts in your inbox..

×

10-Day Weather Forecast

Almanac

Astronomy

Apr. 28, 2017 Rise Set
Actual Time
Civil Twilight
Nautical Twilight
Astronomical Twilight
Moon
Length of Visible Light
Length of Day
Tomorrow will be .
, % of the Moon is Illuminated

Today's Extremes

State Highs State Lows

Community

WunderPhotos

WunderBlog® & News

Nearby

Air Quality

  Air Quality AQ Index Pollutant
Not available.

Snow Depth

Station Depth Elevation

Earthquake Activity

City Distance Mag. Time & Date
Minimum magnitude displayed is 2.5.

Coastal Water Temperatures

Place Temperature

Stations

Nearby Weather Stations

Station Location Temp. Windchill Dew Point Humidity Wind Precip. Elev Updated Type
                   

Watches & Warnings

Special Statement
Issued: 2:41 AM EDT Apr. 28, 2017 – National Weather Service

... Patchy dense fog expected this morning through 9 am...

Patchy dense fog has developed across northeast Tennessee,
southwest Virginia, and southwest north Caroline early this
morning. Visibilities will drop to around a quarter of a mile in
some locations. Motorists are encouraged to slow down while
driving, use low beam headlights and maintain a safe distance
between vehicles.


241 am EDT Fri Apr 28 2017

... Patchy dense fog expected this morning through 9 am...

Patchy dense fog has developed across northeast Tennessee,
southwest Virginia, and southwest north Caroline early this
morning. Visibilities will drop to around a quarter of a mile in
some locations. Motorists are encouraged to slow down while
driving, use low beam headlights and maintain a safe distance
between vehicles.